sensor_id;sensor_type;location;lat;lon;timestamp;P1;durP1;ratioP1;P2;durP2;ratioP2
9892;SDS011;4985;49.092;8.542;2022-07-06T00:01:39;1.75;;;1.40;;
9892;SDS011;4985;49.092;8.542;2022-07-06T00:04:06;1.70;;;1.50;;
9892;SDS011;4985;49.092;8.542;2022-07-06T00:06:32;1.83;;;1.62;;
9892;SDS011;4985;49.092;8.542;2022-07-06T00:08:59;3.05;;;1.60;;
9892;SDS011;4985;49.092;8.542;2022-07-06T00:11:26;5.55;;;1.90;;
9892;SDS011;4985;49.092;8.542;2022-07-06T00:13:54;2.28;;;1.60;;
9892;SDS011;4985;49.092;8.542;2022-07-06T00:16:21;2.00;;;1.75;;
9892;SDS011;4985;49.092;8.542;2022-07-06T00:18:48;5.18;;;1.67;;
9892;SDS011;4985;49.092;8.542;2022-07-06T00:21:15;3.00;;;1.75;;
9892;SDS011;4985;49.092;8.542;2022-07-06T00:23:42;3.22;;;1.60;;
9892;SDS011;4985;49.092;8.542;2022-07-06T00:26:09;3.67;;;1.80;;
9892;SDS011;4985;49.092;8.542;2022-07-06T00:28:35;2.62;;;1.50;;
9892;SDS011;4985;49.092;8.542;2022-07-06T00:31:03;2.35;;;1.75;;
9892;SDS011;4985;49.092;8.542;2022-07-06T00:33:31;1.85;;;1.50;;
9892;SDS011;4985;49.092;8.542;2022-07-06T00:35:58;2.70;;;1.42;;
9892;SDS011;4985;49.092;8.542;2022-07-06T00:38:25;1.98;;;1.45;;
9892;SDS011;4985;49.092;8.542;2022-07-06T00:40:51;1.73;;;1.52;;
9892;SDS011;4985;49.092;8.542;2022-07-06T00:43:18;4.80;;;1.55;;
9892;SDS011;4985;49.092;8.542;2022-07-06T00:45:44;1.77;;;1.37;;
9892;SDS011;4985;49.092;8.542;2022-07-06T00:48:13;2.10;;;1.60;;
9892;SDS011;4985;49.092;8.542;2022-07-06T00:50:39;2.75;;;1.62;;
9892;SDS011;4985;49.092;8.542;2022-07-06T00:53:06;3.75;;;1.60;;
9892;SDS011;4985;49.092;8.542;2022-07-06T00:55:34;2.90;;;1.98;;
9892;SDS011;4985;49.092;8.542;2022-07-06T00:58:04;2.67;;;1.75;;
9892;SDS011;4985;49.092;8.542;2022-07-06T01:00:31;10.25;;;2.22;;
9892;SDS011;4985;49.092;8.542;2022-07-06T01:02:58;2.97;;;1.75;;
9892;SDS011;4985;49.092;8.542;2022-07-06T01:05:26;2.70;;;1.50;;
9892;SDS011;4985;49.092;8.542;2022-07-06T01:07:54;2.17;;;1.90;;
9892;SDS011;4985;49.092;8.542;2022-07-06T01:10:21;2.87;;;1.73;;
9892;SDS011;4985;49.092;8.542;2022-07-06T01:12:48;3.55;;;2.00;;
9892;SDS011;4985;49.092;8.542;2022-07-06T01:15:15;2.08;;;1.45;;
9892;SDS011;4985;49.092;8.542;2022-07-06T01:17:43;2.35;;;1.85;;
9892;SDS011;4985;49.092;8.542;2022-07-06T01:20:12;3.83;;;1.80;;
9892;SDS011;4985;49.092;8.542;2022-07-06T01:22:39;1.45;;;1.30;;
9892;SDS011;4985;49.092;8.542;2022-07-06T01:25:07;1.92;;;1.40;;
9892;SDS011;4985;49.092;8.542;2022-07-06T01:27:34;2.10;;;1.65;;
9892;SDS011;4985;49.092;8.542;2022-07-06T01:30:04;4.80;;;1.77;;
9892;SDS011;4985;49.092;8.542;2022-07-06T01:32:31;2.08;;;1.75;;
9892;SDS011;4985;49.092;8.542;2022-07-06T01:34:58;3.70;;;1.70;;
9892;SDS011;4985;49.092;8.542;2022-07-06T01:37:27;1.33;;;1.20;;
9892;SDS011;4985;49.092;8.542;2022-07-06T01:39:57;2.90;;;1.58;;
9892;SDS011;4985;49.092;8.542;2022-07-06T01:42:24;1.50;;;1.40;;
9892;SDS011;4985;49.092;8.542;2022-07-06T01:44:50;3.03;;;1.85;;
9892;SDS011;4985;49.092;8.542;2022-07-06T01:47:17;4.05;;;1.95;;
9892;SDS011;4985;49.092;8.542;2022-07-06T01:49:44;1.48;;;1.37;;
9892;SDS011;4985;49.092;8.542;2022-07-06T01:52:10;3.47;;;1.75;;
9892;SDS011;4985;49.092;8.542;2022-07-06T01:54:38;2.20;;;1.73;;
9892;SDS011;4985;49.092;8.542;2022-07-06T01:57:05;5.18;;;1.80;;
9892;SDS011;4985;49.092;8.542;2022-07-06T01:59:31;2.72;;;2.08;;
9892;SDS011;4985;49.092;8.542;2022-07-06T02:01:58;3.25;;;2.00;;
9892;SDS011;4985;49.092;8.542;2022-07-06T02:04:25;3.03;;;1.65;;
9892;SDS011;4985;49.092;8.542;2022-07-06T02:06:51;2.67;;;1.75;;
9892;SDS011;4985;49.092;8.542;2022-07-06T02:09:18;3.90;;;1.62;;
9892;SDS011;4985;49.092;8.542;2022-07-06T02:11:46;4.37;;;1.92;;
9892;SDS011;4985;49.092;8.542;2022-07-06T02:14:12;4.35;;;2.08;;
9892;SDS011;4985;49.092;8.542;2022-07-06T02:16:39;3.28;;;1.70;;
9892;SDS011;4985;49.092;8.542;2022-07-06T02:19:06;2.70;;;1.75;;
9892;SDS011;4985;49.092;8.542;2022-07-06T02:21:32;2.33;;;1.52;;
9892;SDS011;4985;49.092;8.542;2022-07-06T02:23:59;3.30;;;1.80;;
9892;SDS011;4985;49.092;8.542;2022-07-06T02:26:25;2.50;;;2.00;;
9892;SDS011;4985;49.092;8.542;2022-07-06T02:28:53;1.98;;;1.73;;
9892;SDS011;4985;49.092;8.542;2022-07-06T02:31:20;2.65;;;1.80;;
9892;SDS011;4985;49.092;8.542;2022-07-06T02:33:47;4.10;;;1.90;;
9892;SDS011;4985;49.092;8.542;2022-07-06T02:36:13;3.25;;;1.80;;
9892;SDS011;4985;49.092;8.542;2022-07-06T02:38:40;2.85;;;1.90;;
9892;SDS011;4985;49.092;8.542;2022-07-06T02:41:06;2.00;;;1.60;;
9892;SDS011;4985;49.092;8.542;2022-07-06T02:43:33;1.98;;;1.80;;
9892;SDS011;4985;49.092;8.542;2022-07-06T02:46:01;2.70;;;1.87;;
9892;SDS011;4985;49.092;8.542;2022-07-06T02:48:28;2.62;;;1.73;;
9892;SDS011;4985;49.092;8.542;2022-07-06T02:50:54;5.87;;;1.87;;
9892;SDS011;4985;49.092;8.542;2022-07-06T02:53:21;3.62;;;2.22;;
9892;SDS011;4985;49.092;8.542;2022-07-06T02:55:47;2.83;;;1.80;;
9892;SDS011;4985;49.092;8.542;2022-07-06T02:58:14;2.10;;;1.80;;
9892;SDS011;4985;49.092;8.542;2022-07-06T03:00:41;3.17;;;1.90;;
9892;SDS011;4985;49.092;8.542;2022-07-06T03:03:09;2.70;;;2.05;;
9892;SDS011;4985;49.092;8.542;2022-07-06T03:05:35;2.85;;;2.12;;
9892;SDS011;4985;49.092;8.542;2022-07-06T03:08:02;2.92;;;1.80;;
9892;SDS011;4985;49.092;8.542;2022-07-06T03:10:29;6.15;;;2.40;;
9892;SDS011;4985;49.092;8.542;2022-07-06T03:12:55;2.40;;;1.92;;
9892;SDS011;4985;49.092;8.542;2022-07-06T03:15:22;2.72;;;1.92;;
9892;SDS011;4985;49.092;8.542;2022-07-06T03:17:49;5.15;;;1.95;;
9892;SDS011;4985;49.092;8.542;2022-07-06T03:20:17;4.75;;;1.90;;
9892;SDS011;4985;49.092;8.542;2022-07-06T03:22:43;3.85;;;2.15;;
9892;SDS011;4985;49.092;8.542;2022-07-06T03:25:10;2.55;;;2.03;;
9892;SDS011;4985;49.092;8.542;2022-07-06T03:27:36;3.25;;;2.00;;
9892;SDS011;4985;49.092;8.542;2022-07-06T03:30:03;5.32;;;2.00;;
9892;SDS011;4985;49.092;8.542;2022-07-06T03:32:30;2.03;;;1.80;;
9892;SDS011;4985;49.092;8.542;2022-07-06T03:34:57;3.10;;;2.45;;
9892;SDS011;4985;49.092;8.542;2022-07-06T03:37:25;4.85;;;2.20;;
9892;SDS011;4985;49.092;8.542;2022-07-06T03:39:52;2.53;;;2.03;;
9892;SDS011;4985;49.092;8.542;2022-07-06T03:42:18;2.70;;;1.92;;
9892;SDS011;4985;49.092;8.542;2022-07-06T03:44:45;2.85;;;2.10;;
9892;SDS011;4985;49.092;8.542;2022-07-06T03:47:11;4.45;;;2.47;;
9892;SDS011;4985;49.092;8.542;2022-07-06T03:49:38;3.25;;;2.05;;
9892;SDS011;4985;49.092;8.542;2022-07-06T03:52:05;2.83;;;2.12;;
9892;SDS011;4985;49.092;8.542;2022-07-06T03:54:33;2.70;;;1.73;;
9892;SDS011;4985;49.092;8.542;2022-07-06T03:56:59;3.95;;;2.10;;
9892;SDS011;4985;49.092;8.542;2022-07-06T03:59:26;4.32;;;2.12;;
9892;SDS011;4985;49.092;8.542;2022-07-06T04:01:53;2.12;;;1.92;;
9892;SDS011;4985;49.092;8.542;2022-07-06T04:04:19;2.42;;;2.10;;
9892;SDS011;4985;49.092;8.542;2022-07-06T04:06:46;2.25;;;1.92;;
9892;SDS011;4985;49.092;8.542;2022-07-06T04:09:13;4.53;;;2.08;;
9892;SDS011;4985;49.092;8.542;2022-07-06T04:11:41;4.75;;;2.40;;
9892;SDS011;4985;49.092;8.542;2022-07-06T04:14:07;2.70;;;2.20;;
9892;SDS011;4985;49.092;8.542;2022-07-06T04:16:34;7.07;;;2.22;;
9892;SDS011;4985;49.092;8.542;2022-07-06T04:19:00;2.85;;;2.42;;
9892;SDS011;4985;49.092;8.542;2022-07-06T04:21:27;5.50;;;2.40;;
9892;SDS011;4985;49.092;8.542;2022-07-06T04:23:53;4.28;;;2.58;;
9892;SDS011;4985;49.092;8.542;2022-07-06T04:26:20;3.00;;;2.05;;
9892;SDS011;4985;49.092;8.542;2022-07-06T04:28:48;2.78;;;2.30;;
9892;SDS011;4985;49.092;8.542;2022-07-06T04:31:15;3.00;;;2.20;;
9892;SDS011;4985;49.092;8.542;2022-07-06T04:33:41;3.12;;;2.10;;
9892;SDS011;4985;49.092;8.542;2022-07-06T04:36:09;4.15;;;2.60;;
9892;SDS011;4985;49.092;8.542;2022-07-06T04:38:35;4.60;;;2.62;;
9892;SDS011;4985;49.092;8.542;2022-07-06T04:41:02;4.05;;;2.22;;
9892;SDS011;4985;49.092;8.542;2022-07-06T04:43:29;3.92;;;2.08;;
9892;SDS011;4985;49.092;8.542;2022-07-06T04:45:57;3.62;;;2.08;;
9892;SDS011;4985;49.092;8.542;2022-07-06T04:48:25;3.08;;;2.33;;
9892;SDS011;4985;49.092;8.542;2022-07-06T04:50:53;2.37;;;2.15;;
9892;SDS011;4985;49.092;8.542;2022-07-06T04:53:20;3.00;;;1.87;;
9892;SDS011;4985;49.092;8.542;2022-07-06T04:55:46;3.90;;;2.17;;
9892;SDS011;4985;49.092;8.542;2022-07-06T04:58:13;3.92;;;2.10;;
9892;SDS011;4985;49.092;8.542;2022-07-06T05:00:40;4.05;;;2.35;;
9892;SDS011;4985;49.092;8.542;2022-07-06T05:03:08;3.12;;;2.30;;
9892;SDS011;4985;49.092;8.542;2022-07-06T05:05:34;3.22;;;2.10;;
9892;SDS011;4985;49.092;8.542;2022-07-06T05:08:01;2.80;;;1.98;;
9892;SDS011;4985;49.092;8.542;2022-07-06T05:10:27;3.92;;;1.98;;
9892;SDS011;4985;49.092;8.542;2022-07-06T05:12:54;5.32;;;1.87;;
9892;SDS011;4985;49.092;8.542;2022-07-06T05:15:21;4.32;;;1.85;;
9892;SDS011;4985;49.092;8.542;2022-07-06T05:17:48;4.60;;;2.00;;
9892;SDS011;4985;49.092;8.542;2022-07-06T05:20:16;6.12;;;2.80;;
9892;SDS011;4985;49.092;8.542;2022-07-06T05:22:42;2.60;;;1.70;;
9892;SDS011;4985;49.092;8.542;2022-07-06T05:25:09;2.72;;;1.85;;
9892;SDS011;4985;49.092;8.542;2022-07-06T05:27:36;7.43;;;2.55;;
9892;SDS011;4985;49.092;8.542;2022-07-06T05:30:02;4.18;;;1.87;;
9892;SDS011;4985;49.092;8.542;2022-07-06T05:32:30;3.03;;;1.73;;
9892;SDS011;4985;49.092;8.542;2022-07-06T05:34:57;2.35;;;1.80;;
9892;SDS011;4985;49.092;8.542;2022-07-06T05:37:25;4.82;;;1.73;;
9892;SDS011;4985;49.092;8.542;2022-07-06T05:39:51;2.72;;;1.70;;
9892;SDS011;4985;49.092;8.542;2022-07-06T05:42:18;3.25;;;1.77;;
9892;SDS011;4985;49.092;8.542;2022-07-06T05:44:45;3.22;;;1.87;;
9892;SDS011;4985;49.092;8.542;2022-07-06T05:47:11;2.90;;;1.77;;
9892;SDS011;4985;49.092;8.542;2022-07-06T05:49:55;2.87;;;1.62;;
9892;SDS011;4985;49.092;8.542;2022-07-06T05:52:42;3.12;;;1.70;;
9892;SDS011;4985;49.092;8.542;2022-07-06T05:55:10;3.55;;;1.80;;
9892;SDS011;4985;49.092;8.542;2022-07-06T05:57:38;5.53;;;1.90;;
9892;SDS011;4985;49.092;8.542;2022-07-06T06:00:05;2.65;;;1.80;;
9892;SDS011;4985;49.092;8.542;2022-07-06T06:02:36;4.45;;;1.83;;
9892;SDS011;4985;49.092;8.542;2022-07-06T06:05:04;2.60;;;1.73;;
9892;SDS011;4985;49.092;8.542;2022-07-06T06:07:32;2.47;;;1.77;;
9892;SDS011;4985;49.092;8.542;2022-07-06T06:10:01;3.12;;;1.60;;
9892;SDS011;4985;49.092;8.542;2022-07-06T06:12:28;5.60;;;2.00;;
9892;SDS011;4985;49.092;8.542;2022-07-06T06:14:55;3.03;;;1.60;;
9892;SDS011;4985;49.092;8.542;2022-07-06T06:17:22;1.90;;;1.65;;
9892;SDS011;4985;49.092;8.542;2022-07-06T06:19:48;3.12;;;1.70;;
9892;SDS011;4985;49.092;8.542;2022-07-06T06:22:15;1.70;;;1.60;;
9892;SDS011;4985;49.092;8.542;2022-07-06T06:24:42;4.03;;;1.60;;
9892;SDS011;4985;49.092;8.542;2022-07-06T06:27:10;1.77;;;1.40;;
9892;SDS011;4985;49.092;8.542;2022-07-06T06:29:36;3.10;;;1.55;;
9892;SDS011;4985;49.092;8.542;2022-07-06T06:32:03;2.75;;;1.50;;
9892;SDS011;4985;49.092;8.542;2022-07-06T06:34:30;2.20;;;1.48;;
9892;SDS011;4985;49.092;8.542;2022-07-06T06:36:57;3.00;;;1.80;;
9892;SDS011;4985;49.092;8.542;2022-07-06T06:39:24;2.90;;;1.87;;
9892;SDS011;4985;49.092;8.542;2022-07-06T06:41:50;3.20;;;1.70;;
9892;SDS011;4985;49.092;8.542;2022-07-06T06:44:18;2.28;;;1.90;;
9892;SDS011;4985;49.092;8.542;2022-07-06T06:46:48;2.10;;;1.75;;
9892;SDS011;4985;49.092;8.542;2022-07-06T06:49:14;2.35;;;1.60;;
9892;SDS011;4985;49.092;8.542;2022-07-06T06:51:41;4.95;;;1.50;;
9892;SDS011;4985;49.092;8.542;2022-07-06T06:54:08;4.78;;;1.90;;
9892;SDS011;4985;49.092;8.542;2022-07-06T06:56:34;3.12;;;1.75;;
9892;SDS011;4985;49.092;8.542;2022-07-06T06:59:01;3.83;;;2.03;;
9892;SDS011;4985;49.092;8.542;2022-07-06T07:01:29;4.15;;;1.60;;
9892;SDS011;4985;49.092;8.542;2022-07-06T07:03:55;1.85;;;1.45;;
9892;SDS011;4985;49.092;8.542;2022-07-06T07:06:23;2.62;;;1.33;;
9892;SDS011;4985;49.092;8.542;2022-07-06T07:08:49;3.92;;;1.73;;
9892;SDS011;4985;49.092;8.542;2022-07-06T07:11:16;2.28;;;1.58;;
9892;SDS011;4985;49.092;8.542;2022-07-06T07:13:42;2.97;;;2.10;;
9892;SDS011;4985;49.092;8.542;2022-07-06T07:16:09;3.50;;;1.95;;
9892;SDS011;4985;49.092;8.542;2022-07-06T07:18:37;5.12;;;2.55;;
9892;SDS011;4985;49.092;8.542;2022-07-06T07:21:04;2.87;;;1.67;;
9892;SDS011;4985;49.092;8.542;2022-07-06T07:23:30;4.28;;;1.83;;
9892;SDS011;4985;49.092;8.542;2022-07-06T07:25:57;3.30;;;1.85;;
9892;SDS011;4985;49.092;8.542;2022-07-06T07:28:24;3.72;;;1.90;;
9892;SDS011;4985;49.092;8.542;2022-07-06T07:30:50;2.85;;;1.87;;
9892;SDS011;4985;49.092;8.542;2022-07-06T07:33:17;2.17;;;1.52;;
9892;SDS011;4985;49.092;8.542;2022-07-06T07:35:45;3.00;;;1.85;;
9892;SDS011;4985;49.092;8.542;2022-07-06T07:38:11;4.55;;;1.67;;
9892;SDS011;4985;49.092;8.542;2022-07-06T07:40:38;5.40;;;1.92;;
9892;SDS011;4985;49.092;8.542;2022-07-06T07:43:05;2.60;;;1.70;;
9892;SDS011;4985;49.092;8.542;2022-07-06T07:45:31;2.37;;;1.83;;
9892;SDS011;4985;49.092;8.542;2022-07-06T07:47:58;2.25;;;1.65;;
9892;SDS011;4985;49.092;8.542;2022-07-06T07:50:25;3.28;;;1.77;;
9892;SDS011;4985;49.092;8.542;2022-07-06T07:52:53;3.05;;;2.03;;
9892;SDS011;4985;49.092;8.542;2022-07-06T07:55:19;2.95;;;1.70;;
9892;SDS011;4985;49.092;8.542;2022-07-06T07:57:46;2.78;;;1.80;;
9892;SDS011;4985;49.092;8.542;2022-07-06T08:00:13;4.82;;;1.55;;
9892;SDS011;4985;49.092;8.542;2022-07-06T08:02:40;2.90;;;2.00;;
9892;SDS011;4985;49.092;8.542;2022-07-06T08:05:07;3.03;;;1.70;;
9892;SDS011;4985;49.092;8.542;2022-07-06T08:07:38;4.05;;;2.20;;
9892;SDS011;4985;49.092;8.542;2022-07-06T08:10:06;3.85;;;2.03;;
9892;SDS011;4985;49.092;8.542;2022-07-06T08:12:33;4.03;;;1.85;;
9892;SDS011;4985;49.092;8.542;2022-07-06T08:15:00;2.53;;;1.70;;
9892;SDS011;4985;49.092;8.542;2022-07-06T08:17:26;4.03;;;2.30;;
9892;SDS011;4985;49.092;8.542;2022-07-06T08:19:53;6.53;;;2.30;;
9892;SDS011;4985;49.092;8.542;2022-07-06T08:22:20;6.97;;;2.70;;
9892;SDS011;4985;49.092;8.542;2022-07-06T08:24:46;4.87;;;2.00;;
9892;SDS011;4985;49.092;8.542;2022-07-06T08:27:14;2.45;;;1.77;;
9892;SDS011;4985;49.092;8.542;2022-07-06T08:29:41;4.45;;;2.20;;
9892;SDS011;4985;49.092;8.542;2022-07-06T08:32:08;3.03;;;1.83;;
9892;SDS011;4985;49.092;8.542;2022-07-06T08:34:35;4.85;;;2.22;;
9892;SDS011;4985;49.092;8.542;2022-07-06T08:37:01;3.85;;;2.03;;
9892;SDS011;4985;49.092;8.542;2022-07-06T08:39:28;2.83;;;2.03;;
9892;SDS011;4985;49.092;8.542;2022-07-06T08:41:55;4.25;;;1.92;;
9892;SDS011;4985;49.092;8.542;2022-07-06T08:44:26;5.65;;;2.95;;
9892;SDS011;4985;49.092;8.542;2022-07-06T08:46:53;2.83;;;1.70;;
9892;SDS011;4985;49.092;8.542;2022-07-06T08:49:23;4.45;;;1.95;;
9892;SDS011;4985;49.092;8.542;2022-07-06T08:51:51;3.80;;;2.37;;
9892;SDS011;4985;49.092;8.542;2022-07-06T08:54:18;5.78;;;2.50;;
9892;SDS011;4985;49.092;8.542;2022-07-06T08:56:47;4.03;;;2.00;;
9892;SDS011;4985;49.092;8.542;2022-07-06T08:59:15;5.87;;;2.65;;
9892;SDS011;4985;49.092;8.542;2022-07-06T09:01:43;5.50;;;2.20;;
9892;SDS011;4985;49.092;8.542;2022-07-06T09:04:11;3.20;;;2.10;;
9892;SDS011;4985;49.092;8.542;2022-07-06T09:06:38;5.35;;;2.00;;
9892;SDS011;4985;49.092;8.542;2022-07-06T09:09:08;5.18;;;2.28;;
9892;SDS011;4985;49.092;8.542;2022-07-06T09:11:35;4.55;;;2.67;;
9892;SDS011;4985;49.092;8.542;2022-07-06T09:14:02;3.40;;;2.00;;
9892;SDS011;4985;49.092;8.542;2022-07-06T09:16:29;4.97;;;2.78;;
9892;SDS011;4985;49.092;8.542;2022-07-06T09:18:58;5.03;;;2.50;;
9892;SDS011;4985;49.092;8.542;2022-07-06T09:21:25;5.45;;;2.40;;
9892;SDS011;4985;49.092;8.542;2022-07-06T09:23:55;5.07;;;2.35;;
9892;SDS011;4985;49.092;8.542;2022-07-06T09:26:23;7.93;;;3.37;;
9892;SDS011;4985;49.092;8.542;2022-07-06T09:28:50;3.20;;;2.55;;
9892;SDS011;4985;49.092;8.542;2022-07-06T09:31:16;4.00;;;2.05;;
9892;SDS011;4985;49.092;8.542;2022-07-06T09:36:36;3.15;;;2.22;;
9892;SDS011;4985;49.092;8.542;2022-07-06T09:39:16;2.67;;;1.92;;
9892;SDS011;4985;49.092;8.542;2022-07-06T09:41:44;4.60;;;2.12;;
9892;SDS011;4985;49.092;8.542;2022-07-06T09:44:11;3.03;;;2.45;;
9892;SDS011;4985;49.092;8.542;2022-07-06T09:46:38;4.97;;;2.08;;
9892;SDS011;4985;49.092;8.542;2022-07-06T09:49:08;3.92;;;2.15;;
9892;SDS011;4985;49.092;8.542;2022-07-06T09:51:35;6.68;;;3.10;;
9892;SDS011;4985;49.092;8.542;2022-07-06T09:54:03;5.22;;;1.75;;
9892;SDS011;4985;49.092;8.542;2022-07-06T09:56:36;6.10;;;1.95;;
9892;SDS011;4985;49.092;8.542;2022-07-06T09:59:05;4.43;;;2.05;;
9892;SDS011;4985;49.092;8.542;2022-07-06T10:01:34;8.13;;;3.08;;
9892;SDS011;4985;49.092;8.542;2022-07-06T10:04:01;6.25;;;1.92;;
9892;SDS011;4985;49.092;8.542;2022-07-06T10:06:29;2.37;;;1.60;;
9892;SDS011;4985;49.092;8.542;2022-07-06T10:08:57;3.47;;;2.75;;
9892;SDS011;4985;49.092;8.542;2022-07-06T10:11:24;3.87;;;2.67;;
9892;SDS011;4985;49.092;8.542;2022-07-06T10:13:52;4.12;;;2.45;;
9892;SDS011;4985;49.092;8.542;2022-07-06T10:16:22;2.85;;;2.20;;
9892;SDS011;4985;49.092;8.542;2022-07-06T10:18:49;3.25;;;2.35;;
9892;SDS011;4985;49.092;8.542;2022-07-06T10:21:18;4.62;;;2.90;;
9892;SDS011;4985;49.092;8.542;2022-07-06T10:23:48;3.17;;;2.42;;
9892;SDS011;4985;49.092;8.542;2022-07-06T10:26:15;4.55;;;2.65;;
9892;SDS011;4985;49.092;8.542;2022-07-06T10:28:43;4.50;;;2.55;;
9892;SDS011;4985;49.092;8.542;2022-07-06T10:31:12;5.18;;;2.70;;
9892;SDS011;4985;49.092;8.542;2022-07-06T10:33:40;4.75;;;2.70;;
9892;SDS011;4985;49.092;8.542;2022-07-06T10:36:08;3.60;;;2.45;;
9892;SDS011;4985;49.092;8.542;2022-07-06T10:38:35;3.90;;;2.42;;
9892;SDS011;4985;49.092;8.542;2022-07-06T10:41:04;6.05;;;2.85;;
9892;SDS011;4985;49.092;8.542;2022-07-06T10:43:32;3.40;;;2.37;;
9892;SDS011;4985;49.092;8.542;2022-07-06T10:46:04;3.87;;;2.05;;
9892;SDS011;4985;49.092;8.542;2022-07-06T10:48:35;5.20;;;2.55;;
9892;SDS011;4985;49.092;8.542;2022-07-06T10:51:02;5.43;;;3.28;;
9892;SDS011;4985;49.092;8.542;2022-07-06T10:53:31;2.10;;;1.73;;
9892;SDS011;4985;49.092;8.542;2022-07-06T10:56:00;4.22;;;2.15;;
9892;SDS011;4985;49.092;8.542;2022-07-06T10:58:36;2.15;;;1.73;;
9892;SDS011;4985;49.092;8.542;2022-07-06T11:01:05;3.25;;;2.05;;
9892;SDS011;4985;49.092;8.542;2022-07-06T11:03:33;3.62;;;2.05;;
9892;SDS011;4985;49.092;8.542;2022-07-06T11:06:02;3.05;;;2.25;;
9892;SDS011;4985;49.092;8.542;2022-07-06T11:08:44;2.78;;;1.70;;
9892;SDS011;4985;49.092;8.542;2022-07-06T11:11:16;3.47;;;1.98;;
9892;SDS011;4985;49.092;8.542;2022-07-06T11:13:48;3.15;;;2.05;;
9892;SDS011;4985;49.092;8.542;2022-07-06T11:16:17;2.30;;;1.92;;
9892;SDS011;4985;49.092;8.542;2022-07-06T11:18:48;3.55;;;2.00;;
9892;SDS011;4985;49.092;8.542;2022-07-06T11:21:16;2.90;;;1.90;;
9892;SDS011;4985;49.092;8.542;2022-07-06T11:23:47;3.08;;;1.95;;
9892;SDS011;4985;49.092;8.542;2022-07-06T11:26:15;2.42;;;1.80;;
9892;SDS011;4985;49.092;8.542;2022-07-06T11:28:44;2.10;;;1.60;;
9892;SDS011;4985;49.092;8.542;2022-07-06T11:31:14;1.75;;;1.52;;
9892;SDS011;4985;49.092;8.542;2022-07-06T11:33:41;6.22;;;2.20;;
9892;SDS011;4985;49.092;8.542;2022-07-06T11:36:12;3.30;;;2.28;;
9892;SDS011;4985;49.092;8.542;2022-07-06T11:38:42;1.83;;;1.70;;
9892;SDS011;4985;49.092;8.542;2022-07-06T11:41:09;4.78;;;2.12;;
9892;SDS011;4985;49.092;8.542;2022-07-06T11:43:38;2.40;;;2.17;;
9892;SDS011;4985;49.092;8.542;2022-07-06T11:46:18;3.53;;;2.08;;
9892;SDS011;4985;49.092;8.542;2022-07-06T11:48:46;4.18;;;1.60;;
9892;SDS011;4985;49.092;8.542;2022-07-06T11:51:13;4.15;;;1.98;;
9892;SDS011;4985;49.092;8.542;2022-07-06T11:53:42;2.80;;;1.85;;
9892;SDS011;4985;49.092;8.542;2022-07-06T11:56:10;2.45;;;1.60;;
9892;SDS011;4985;49.092;8.542;2022-07-06T11:58:36;1.55;;;1.45;;
9892;SDS011;4985;49.092;8.542;2022-07-06T12:01:05;2.62;;;1.80;;
9892;SDS011;4985;49.092;8.542;2022-07-06T12:03:34;1.77;;;1.60;;
9892;SDS011;4985;49.092;8.542;2022-07-06T12:06:01;2.00;;;1.80;;
9892;SDS011;4985;49.092;8.542;2022-07-06T12:08:28;2.22;;;1.62;;
9892;SDS011;4985;49.092;8.542;2022-07-06T12:10:55;2.60;;;1.75;;
9892;SDS011;4985;49.092;8.542;2022-07-06T12:13:22;1.83;;;1.30;;
9892;SDS011;4985;49.092;8.542;2022-07-06T12:15:49;4.93;;;1.65;;
9892;SDS011;4985;49.092;8.542;2022-07-06T12:18:16;3.08;;;2.00;;
9892;SDS011;4985;49.092;8.542;2022-07-06T12:20:45;3.33;;;1.95;;
9892;SDS011;4985;49.092;8.542;2022-07-06T12:23:11;2.30;;;1.70;;
9892;SDS011;4985;49.092;8.542;2022-07-06T12:25:38;3.55;;;1.80;;
9892;SDS011;4985;49.092;8.542;2022-07-06T12:28:05;3.08;;;1.52;;
9892;SDS011;4985;49.092;8.542;2022-07-06T12:30:32;2.42;;;1.50;;
9892;SDS011;4985;49.092;8.542;2022-07-06T12:33:12;2.12;;;1.60;;
9892;SDS011;4985;49.092;8.542;2022-07-06T12:35:40;3.08;;;1.58;;
9892;SDS011;4985;49.092;8.542;2022-07-06T12:38:08;4.28;;;1.77;;
9892;SDS011;4985;49.092;8.542;2022-07-06T12:40:35;2.03;;;1.50;;
9892;SDS011;4985;49.092;8.542;2022-07-06T12:43:02;1.62;;;1.48;;
9892;SDS011;4985;49.092;8.542;2022-07-06T12:45:30;1.60;;;1.12;;
9892;SDS011;4985;49.092;8.542;2022-07-06T12:47:57;1.08;;;1.00;;
9892;SDS011;4985;49.092;8.542;2022-07-06T12:50:30;1.92;;;1.27;;
9892;SDS011;4985;49.092;8.542;2022-07-06T12:52:57;3.78;;;1.60;;
9892;SDS011;4985;49.092;8.542;2022-07-06T12:55:26;2.03;;;1.65;;
9892;SDS011;4985;49.092;8.542;2022-07-06T12:57:54;2.33;;;1.50;;
9892;SDS011;4985;49.092;8.542;2022-07-06T13:00:22;2.25;;;1.85;;
9892;SDS011;4985;49.092;8.542;2022-07-06T13:02:51;3.35;;;1.80;;
9892;SDS011;4985;49.092;8.542;2022-07-06T13:05:24;2.10;;;1.42;;
9892;SDS011;4985;49.092;8.542;2022-07-06T13:07:53;4.55;;;1.70;;
9892;SDS011;4985;49.092;8.542;2022-07-06T13:10:21;3.00;;;1.65;;
9892;SDS011;4985;49.092;8.542;2022-07-06T13:12:49;2.28;;;1.80;;
9892;SDS011;4985;49.092;8.542;2022-07-06T13:15:16;1.17;;;1.00;;
9892;SDS011;4985;49.092;8.542;2022-07-06T13:17:43;2.65;;;1.27;;
9892;SDS011;4985;49.092;8.542;2022-07-06T13:20:10;6.93;;;1.65;;
9892;SDS011;4985;49.092;8.542;2022-07-06T13:22:38;2.10;;;1.73;;
9892;SDS011;4985;49.092;8.542;2022-07-06T13:25:06;5.12;;;1.80;;
9892;SDS011;4985;49.092;8.542;2022-07-06T13:27:33;2.15;;;1.42;;
9892;SDS011;4985;49.092;8.542;2022-07-06T13:30:01;2.45;;;1.62;;
9892;SDS011;4985;49.092;8.542;2022-07-06T13:32:28;2.72;;;1.60;;
9892;SDS011;4985;49.092;8.542;2022-07-06T13:34:55;1.67;;;1.58;;
9892;SDS011;4985;49.092;8.542;2022-07-06T13:37:21;2.30;;;1.20;;
9892;SDS011;4985;49.092;8.542;2022-07-06T13:39:48;1.50;;;1.40;;
9892;SDS011;4985;49.092;8.542;2022-07-06T13:42:15;3.15;;;1.40;;
9892;SDS011;4985;49.092;8.542;2022-07-06T13:44:42;2.15;;;1.55;;
9892;SDS011;4985;49.092;8.542;2022-07-06T13:47:10;3.20;;;2.05;;
9892;SDS011;4985;49.092;8.542;2022-07-06T13:49:36;3.15;;;1.50;;
9892;SDS011;4985;49.092;8.542;2022-07-06T13:52:03;2.42;;;1.30;;
9892;SDS011;4985;49.092;8.542;2022-07-06T13:54:30;2.05;;;1.60;;
9892;SDS011;4985;49.092;8.542;2022-07-06T13:56:58;2.60;;;1.62;;
9892;SDS011;4985;49.092;8.542;2022-07-06T13:59:27;2.30;;;1.50;;
9892;SDS011;4985;49.092;8.542;2022-07-06T14:01:53;3.05;;;1.33;;
9892;SDS011;4985;49.092;8.542;2022-07-06T14:04:21;2.83;;;1.48;;
9892;SDS011;4985;49.092;8.542;2022-07-06T14:06:48;3.90;;;1.40;;
9892;SDS011;4985;49.092;8.542;2022-07-06T14:09:15;2.37;;;1.30;;
9892;SDS011;4985;49.092;8.542;2022-07-06T14:11:41;3.20;;;1.60;;
9892;SDS011;4985;49.092;8.542;2022-07-06T14:14:08;1.90;;;1.70;;
9892;SDS011;4985;49.092;8.542;2022-07-06T14:16:34;1.92;;;1.30;;
9892;SDS011;4985;49.092;8.542;2022-07-06T14:19:01;2.70;;;1.50;;
9892;SDS011;4985;49.092;8.542;2022-07-06T14:21:29;2.33;;;1.70;;
9892;SDS011;4985;49.092;8.542;2022-07-06T14:23:56;1.98;;;1.48;;
9892;SDS011;4985;49.092;8.542;2022-07-06T14:26:23;1.30;;;1.20;;
9892;SDS011;4985;49.092;8.542;2022-07-06T14:28:49;1.35;;;1.10;;
9892;SDS011;4985;49.092;8.542;2022-07-06T14:31:16;2.20;;;1.20;;
9892;SDS011;4985;49.092;8.542;2022-07-06T14:33:43;1.85;;;1.20;;
9892;SDS011;4985;49.092;8.542;2022-07-06T14:36:09;2.65;;;1.30;;
9892;SDS011;4985;49.092;8.542;2022-07-06T14:38:37;2.20;;;1.60;;
9892;SDS011;4985;49.092;8.542;2022-07-06T14:41:04;1.30;;;1.20;;
9892;SDS011;4985;49.092;8.542;2022-07-06T14:43:31;1.70;;;1.40;;
9892;SDS011;4985;49.092;8.542;2022-07-06T14:45:57;2.03;;;1.20;;
9892;SDS011;4985;49.092;8.542;2022-07-06T14:48:24;1.75;;;1.23;;
9892;SDS011;4985;49.092;8.542;2022-07-06T14:50:50;1.40;;;1.02;;
9892;SDS011;4985;49.092;8.542;2022-07-06T14:53:17;3.53;;;1.23;;
9892;SDS011;4985;49.092;8.542;2022-07-06T14:55:46;1.58;;;1.20;;
9892;SDS011;4985;49.092;8.542;2022-07-06T14:58:13;1.58;;;1.30;;
9892;SDS011;4985;49.092;8.542;2022-07-06T15:00:42;1.65;;;1.33;;
9892;SDS011;4985;49.092;8.542;2022-07-06T15:03:09;1.20;;;1.10;;
9892;SDS011;4985;49.092;8.542;2022-07-06T15:05:35;2.47;;;1.33;;
9892;SDS011;4985;49.092;8.542;2022-07-06T15:08:02;3.85;;;1.60;;
9892;SDS011;4985;49.092;8.542;2022-07-06T15:10:30;4.28;;;1.27;;
9892;SDS011;4985;49.092;8.542;2022-07-06T15:12:58;2.90;;;1.33;;
9892;SDS011;4985;49.092;8.542;2022-07-06T15:15:25;3.70;;;1.25;;
9892;SDS011;4985;49.092;8.542;2022-07-06T15:17:52;2.45;;;1.40;;
9892;SDS011;4985;49.092;8.542;2022-07-06T15:20:18;2.08;;;1.25;;